sensor_id;sensor_type;location;lat;lon;timestamp;P1;durP1;ratioP1;P2;durP2;ratioP2
16916;SDS011;8575;52.418;13.492;2022-12-31T00:24:18;960.50;;;892.57;;
16916;SDS011;8575;52.418;13.492;2022-12-31T00:26:21;0.60;;;0.60;;
16916;SDS011;8575;52.418;13.492;2022-12-31T00:28:25;456.90;;;408.87;;
16916;SDS011;8575;52.418;13.492;2022-12-31T00:30:27;460.57;;;383.23;;
16916;SDS011;8575;52.418;13.492;2022-12-31T00:32:29;447.60;;;389.93;;
16916;SDS011;8575;52.418;13.492;2022-12-31T00:34:31;89.63;;;53.57;;
16916;SDS011;8575;52.418;13.492;2022-12-31T00:36:34;330.43;;;304.50;;
16916;SDS011;8575;52.418;13.492;2022-12-31T00:38:39;421.50;;;243.13;;
16916;SDS011;8575;52.418;13.492;2022-12-31T00:40:42;433.20;;;308.53;;
16916;SDS011;8575;52.418;13.492;2022-12-31T00:42:46;424.73;;;263.33;;
16916;SDS011;8575;52.418;13.492;2022-12-31T00:44:48;417.80;;;239.83;;
16916;SDS011;8575;52.418;13.492;2022-12-31T00:46:51;443.70;;;346.43;;
16916;SDS011;8575;52.418;13.492;2022-12-31T00:48:53;444.70;;;359.77;;
16916;SDS011;8575;52.418;13.492;2022-12-31T00:50:56;419.17;;;241.37;;
16916;SDS011;8575;52.418;13.492;2022-12-31T00:52:58;464.37;;;319.57;;
16916;SDS011;8575;52.418;13.492;2022-12-31T00:55:02;441.80;;;287.47;;
16916;SDS011;8575;52.418;13.492;2022-12-31T00:57:06;383.13;;;174.57;;
16916;SDS011;8575;52.418;13.492;2022-12-31T00:59:08;393.87;;;185.50;;
16916;SDS011;8575;52.418;13.492;2022-12-31T01:01:10;391.63;;;177.00;;
16916;SDS011;8575;52.418;13.492;2022-12-31T01:03:13;369.70;;;220.90;;
16916;SDS011;8575;52.418;13.492;2022-12-31T01:05:16;437.90;;;279.40;;
16916;SDS011;8575;52.418;13.492;2022-12-31T01:07:18;415.93;;;229.23;;
16916;SDS011;8575;52.418;13.492;2022-12-31T01:09:20;419.93;;;253.40;;
16916;SDS011;8575;52.418;13.492;2022-12-31T01:11:24;425.47;;;265.63;;
16916;SDS011;8575;52.418;13.492;2022-12-31T01:13:28;417.00;;;247.93;;
16916;SDS011;8575;52.418;13.492;2022-12-31T01:15:32;413.07;;;233.63;;
16916;SDS011;8575;52.418;13.492;2022-12-31T01:17:35;423.80;;;276.80;;
16916;SDS011;8575;52.418;13.492;2022-12-31T01:19:37;423.23;;;313.47;;
16916;SDS011;8575;52.418;13.492;2022-12-31T01:21:39;420.77;;;308.63;;
16916;SDS011;8575;52.418;13.492;2022-12-31T01:23:42;397.10;;;191.60;;
16916;SDS011;8575;52.418;13.492;2022-12-31T01:25:45;405.20;;;202.87;;
16916;SDS011;8575;52.418;13.492;2022-12-31T01:27:48;402.30;;;191.93;;
16916;SDS011;8575;52.418;13.492;2022-12-31T01:29:51;469.50;;;416.87;;
16916;SDS011;8575;52.418;13.492;2022-12-31T01:31:54;548.17;;;493.60;;
16916;SDS011;8575;52.418;13.492;2022-12-31T01:33:56;418.37;;;228.23;;
16916;SDS011;8575;52.418;13.492;2022-12-31T01:36:02;436.70;;;280.30;;
16916;SDS011;8575;52.418;13.492;2022-12-31T01:38:05;355.57;;;136.53;;
16916;SDS011;8575;52.418;13.492;2022-12-31T01:40:08;344.30;;;131.27;;
16916;SDS011;8575;52.418;13.492;2022-12-31T01:42:10;371.23;;;148.73;;
16916;SDS011;8575;52.418;13.492;2022-12-31T01:47:03;342.67;;;121.57;;
16916;SDS011;8575;52.418;13.492;2022-12-31T01:49:08;406.07;;;212.90;;
16916;SDS011;8575;52.418;13.492;2022-12-31T01:51:13;440.97;;;278.53;;
16916;SDS011;8575;52.418;13.492;2022-12-31T01:53:15;352.63;;;119.67;;
16916;SDS011;8575;52.418;13.492;2022-12-31T01:55:19;403.10;;;195.17;;
16916;SDS011;8575;52.418;13.492;2022-12-31T01:57:22;361.47;;;131.70;;
16916;SDS011;8575;52.418;13.492;2022-12-31T01:59:25;384.20;;;160.90;;
16916;SDS011;8575;52.418;13.492;2022-12-31T02:01:28;402.17;;;213.67;;
16916;SDS011;8575;52.418;13.492;2022-12-31T02:03:33;393.20;;;179.40;;
16916;SDS011;8575;52.418;13.492;2022-12-31T02:05:37;403.00;;;193.20;;
16916;SDS011;8575;52.418;13.492;2022-12-31T02:07:43;399.10;;;193.53;;
16916;SDS011;8575;52.418;13.492;2022-12-31T02:09:46;401.90;;;199.23;;
16916;SDS011;8575;52.418;13.492;2022-12-31T02:11:48;397.60;;;182.90;;
16916;SDS011;8575;52.418;13.492;2022-12-31T02:13:50;394.40;;;175.73;;
16916;SDS011;8575;52.418;13.492;2022-12-31T02:15:56;393.87;;;187.13;;
16916;SDS011;8575;52.418;13.492;2022-12-31T02:18:05;452.00;;;357.40;;
16916;SDS011;8575;52.418;13.492;2022-12-31T02:22:59;378.80;;;349.90;;
16916;SDS011;8575;52.418;13.492;2022-12-31T02:27:50;443.40;;;284.00;;
16916;SDS011;8575;52.418;13.492;2022-12-31T02:30:01;418.07;;;224.07;;
16916;SDS011;8575;52.418;13.492;2022-12-31T02:32:11;447.87;;;295.57;;
16916;SDS011;8575;52.418;13.492;2022-12-31T02:34:16;428.90;;;255.97;;
16916;SDS011;8575;52.418;13.492;2022-12-31T02:36:21;419.77;;;239.10;;
16916;SDS011;8575;52.418;13.492;2022-12-31T02:38:25;404.30;;;198.10;;
16916;SDS011;8575;52.418;13.492;2022-12-31T02:40:31;412.73;;;218.53;;
16916;SDS011;8575;52.418;13.492;2022-12-31T02:42:34;415.63;;;216.60;;
16916;SDS011;8575;52.418;13.492;2022-12-31T02:44:37;413.23;;;220.23;;
16916;SDS011;8575;52.418;13.492;2022-12-31T02:46:43;392.47;;;189.97;;
16916;SDS011;8575;52.418;13.492;2022-12-31T02:48:51;435.17;;;191.20;;
16916;SDS011;8575;52.418;13.492;2022-12-31T02:50:58;406.00;;;198.23;;
16916;SDS011;8575;52.418;13.492;2022-12-31T02:53:12;393.67;;;177.23;;
16916;SDS011;8575;52.418;13.492;2022-12-31T02:55:23;381.70;;;163.20;;
16916;SDS011;8575;52.418;13.492;2022-12-31T02:57:33;360.17;;;138.07;;
16916;SDS011;8575;52.418;13.492;2022-12-31T02:59:41;340.03;;;144.53;;
16916;SDS011;8575;52.418;13.492;2022-12-31T03:02:10;332.13;;;112.87;;
16916;SDS011;8575;52.418;13.492;2022-12-31T03:04:14;329.07;;;115.37;;
16916;SDS011;8575;52.418;13.492;2022-12-31T03:06:33;319.50;;;111.57;;
16916;SDS011;8575;52.418;13.492;2022-12-31T03:08:35;7.67;;;7.13;;
16916;SDS011;8575;52.418;13.492;2022-12-31T03:10:58;6.43;;;6.03;;
16916;SDS011;8575;52.418;13.492;2022-12-31T03:13:20;9.18;;;8.55;;
16916;SDS011;8575;52.418;13.492;2022-12-31T03:15:23;8.63;;;8.00;;
16916;SDS011;8575;52.418;13.492;2022-12-31T03:17:28;7.40;;;6.97;;
16916;SDS011;8575;52.418;13.492;2022-12-31T03:19:30;7.90;;;7.47;;
16916;SDS011;8575;52.418;13.492;2022-12-31T03:21:49;9.13;;;8.50;;
16916;SDS011;8575;52.418;13.492;2022-12-31T03:24:09;8.52;;;7.93;;
16916;SDS011;8575;52.418;13.492;2022-12-31T03:26:28;8.60;;;8.00;;
16916;SDS011;8575;52.418;13.492;2022-12-31T03:28:31;7.67;;;7.17;;
16916;SDS011;8575;52.418;13.492;2022-12-31T03:30:33;7.40;;;6.95;;
16916;SDS011;8575;52.418;13.492;2022-12-31T03:32:38;6.60;;;6.18;;
16916;SDS011;8575;52.418;13.492;2022-12-31T03:34:40;7.75;;;7.25;;
16916;SDS011;8575;52.418;13.492;2022-12-31T03:36:42;7.07;;;6.68;;
16916;SDS011;8575;52.418;13.492;2022-12-31T03:38:44;7.75;;;7.25;;
16916;SDS011;8575;52.418;13.492;2022-12-31T03:40:47;7.43;;;6.95;;
16916;SDS011;8575;52.418;13.492;2022-12-31T03:42:51;7.80;;;7.30;;
16916;SDS011;8575;52.418;13.492;2022-12-31T03:44:53;9.13;;;8.52;;
16916;SDS011;8575;52.418;13.492;2022-12-31T03:46:55;8.20;;;7.70;;
16916;SDS011;8575;52.418;13.492;2022-12-31T03:48:59;7.72;;;7.22;;
16916;SDS011;8575;52.418;13.492;2022-12-31T03:51:01;9.03;;;8.47;;
16916;SDS011;8575;52.418;13.492;2022-12-31T03:53:04;8.20;;;7.70;;
16916;SDS011;8575;52.418;13.492;2022-12-31T03:55:06;9.20;;;8.60;;
16916;SDS011;8575;52.418;13.492;2022-12-31T03:57:09;8.95;;;8.35;;
16916;SDS011;8575;52.418;13.492;2022-12-31T03:59:12;8.88;;;8.30;;
16916;SDS011;8575;52.418;13.492;2022-12-31T04:01:14;8.02;;;7.53;;
16916;SDS011;8575;52.418;13.492;2022-12-31T04:03:16;7.03;;;6.63;;
16916;SDS011;8575;52.418;13.492;2022-12-31T04:05:20;8.98;;;8.35;;
16916;SDS011;8575;52.418;13.492;2022-12-31T04:07:23;8.10;;;7.60;;
16916;SDS011;8575;52.418;13.492;2022-12-31T04:09:26;7.47;;;7.03;;
16916;SDS011;8575;52.418;13.492;2022-12-31T04:11:28;8.23;;;7.72;;
16916;SDS011;8575;52.418;13.492;2022-12-31T04:13:30;8.52;;;8.00;;
16916;SDS011;8575;52.418;13.492;2022-12-31T04:15:32;7.50;;;7.05;;
16916;SDS011;8575;52.418;13.492;2022-12-31T04:17:35;7.85;;;7.35;;
16916;SDS011;8575;52.418;13.492;2022-12-31T04:19:37;8.07;;;7.57;;
16916;SDS011;8575;52.418;13.492;2022-12-31T04:21:41;7.43;;;6.93;;
16916;SDS011;8575;52.418;13.492;2022-12-31T04:23:43;7.50;;;7.10;;
16916;SDS011;8575;52.418;13.492;2022-12-31T04:25:45;7.78;;;7.20;;
16916;SDS011;8575;52.418;13.492;2022-12-31T04:27:47;7.63;;;7.13;;
16916;SDS011;8575;52.418;13.492;2022-12-31T04:29:50;8.43;;;7.83;;
16916;SDS011;8575;52.418;13.492;2022-12-31T04:31:52;8.00;;;7.47;;
16916;SDS011;8575;52.418;13.492;2022-12-31T04:33:55;7.82;;;7.32;;
16916;SDS011;8575;52.418;13.492;2022-12-31T04:35:59;7.40;;;6.90;;
16916;SDS011;8575;52.418;13.492;2022-12-31T04:38:02;7.40;;;6.97;;
16916;SDS011;8575;52.418;13.492;2022-12-31T04:40:05;8.40;;;7.82;;
16916;SDS011;8575;52.418;13.492;2022-12-31T04:42:08;8.40;;;7.80;;
16916;SDS011;8575;52.418;13.492;2022-12-31T04:44:11;7.90;;;7.40;;
16916;SDS011;8575;52.418;13.492;2022-12-31T04:46:14;8.27;;;7.67;;
16916;SDS011;8575;52.418;13.492;2022-12-31T04:48:17;8.73;;;8.05;;
16916;SDS011;8575;52.418;13.492;2022-12-31T04:50:19;8.57;;;7.97;;
16916;SDS011;8575;52.418;13.492;2022-12-31T04:52:21;10.07;;;9.30;;
16916;SDS011;8575;52.418;13.492;2022-12-31T04:54:25;8.20;;;7.60;;
16916;SDS011;8575;52.418;13.492;2022-12-31T04:56:27;8.18;;;7.57;;
16916;SDS011;8575;52.418;13.492;2022-12-31T04:58:29;8.70;;;8.10;;
16916;SDS011;8575;52.418;13.492;2022-12-31T05:00:32;8.73;;;8.13;;
16916;SDS011;8575;52.418;13.492;2022-12-31T05:02:34;7.45;;;7.00;;
16916;SDS011;8575;52.418;13.492;2022-12-31T05:04:36;8.73;;;8.05;;
16916;SDS011;8575;52.418;13.492;2022-12-31T05:06:38;7.00;;;6.60;;
16916;SDS011;8575;52.418;13.492;2022-12-31T05:08:41;7.30;;;6.80;;
16916;SDS011;8575;52.418;13.492;2022-12-31T05:10:47;7.82;;;7.32;;
16916;SDS011;8575;52.418;13.492;2022-12-31T05:12:50;6.15;;;5.82;;
16916;SDS011;8575;52.418;13.492;2022-12-31T05:14:52;9.50;;;8.82;;
16916;SDS011;8575;52.418;13.492;2022-12-31T05:16:54;7.93;;;7.43;;
16916;SDS011;8575;52.418;13.492;2022-12-31T05:18:57;8.13;;;7.63;;
16916;SDS011;8575;52.418;13.492;2022-12-31T05:21:00;7.33;;;6.83;;
16916;SDS011;8575;52.418;13.492;2022-12-31T05:23:02;8.70;;;8.13;;
16916;SDS011;8575;52.418;13.492;2022-12-31T05:25:05;11.95;;;11.05;;
16916;SDS011;8575;52.418;13.492;2022-12-31T05:27:09;8.40;;;7.80;;
16916;SDS011;8575;52.418;13.492;2022-12-31T05:29:11;9.27;;;8.67;;
16916;SDS011;8575;52.418;13.492;2022-12-31T05:31:13;10.30;;;9.50;;
16916;SDS011;8575;52.418;13.492;2022-12-31T05:33:16;8.77;;;8.07;;
16916;SDS011;8575;52.418;13.492;2022-12-31T05:35:18;8.50;;;7.88;;
16916;SDS011;8575;52.418;13.492;2022-12-31T05:37:20;7.40;;;6.90;;
16916;SDS011;8575;52.418;13.492;2022-12-31T05:39:23;8.23;;;7.63;;
16916;SDS011;8575;52.418;13.492;2022-12-31T05:41:25;7.75;;;7.18;;
16916;SDS011;8575;52.418;13.492;2022-12-31T05:43:29;7.93;;;7.43;;
16916;SDS011;8575;52.418;13.492;2022-12-31T05:45:31;7.23;;;6.77;;
16916;SDS011;8575;52.418;13.492;2022-12-31T05:47:34;7.88;;;7.38;;
16916;SDS011;8575;52.418;13.492;2022-12-31T05:49:36;7.77;;;7.27;;
16916;SDS011;8575;52.418;13.492;2022-12-31T05:51:38;7.38;;;6.88;;
16916;SDS011;8575;52.418;13.492;2022-12-31T05:53:40;8.23;;;7.68;;
16916;SDS011;8575;52.418;13.492;2022-12-31T05:55:43;7.18;;;6.70;;
16916;SDS011;8575;52.418;13.492;2022-12-31T05:57:46;7.57;;;7.07;;
16916;SDS011;8575;52.418;13.492;2022-12-31T05:59:50;8.43;;;7.82;;
16916;SDS011;8575;52.418;13.492;2022-12-31T06:01:53;8.65;;;8.00;;
16916;SDS011;8575;52.418;13.492;2022-12-31T06:03:55;7.20;;;6.70;;
16916;SDS011;8575;52.418;13.492;2022-12-31T06:05:57;7.13;;;6.63;;
16916;SDS011;8575;52.418;13.492;2022-12-31T06:08:02;6.97;;;6.57;;
16916;SDS011;8575;52.418;13.492;2022-12-31T06:10:04;9.10;;;8.50;;
16916;SDS011;8575;52.418;13.492;2022-12-31T06:12:07;9.02;;;8.32;;
16916;SDS011;8575;52.418;13.492;2022-12-31T06:14:10;6.90;;;6.43;;
16916;SDS011;8575;52.418;13.492;2022-12-31T06:16:14;7.30;;;6.80;;
16916;SDS011;8575;52.418;13.492;2022-12-31T06:18:16;8.80;;;8.17;;
16916;SDS011;8575;52.418;13.492;2022-12-31T06:20:19;8.70;;;8.07;;
16916;SDS011;8575;52.418;13.492;2022-12-31T06:22:21;8.50;;;7.90;;
16916;SDS011;8575;52.418;13.492;2022-12-31T06:24:23;7.93;;;7.43;;
16916;SDS011;8575;52.418;13.492;2022-12-31T06:26:25;7.80;;;7.30;;
16916;SDS011;8575;52.418;13.492;2022-12-31T06:28:28;7.63;;;7.13;;
16916;SDS011;8575;52.418;13.492;2022-12-31T06:30:30;7.13;;;6.73;;
16916;SDS011;8575;52.418;13.492;2022-12-31T06:32:34;9.80;;;9.10;;
16916;SDS011;8575;52.418;13.492;2022-12-31T06:34:37;7.22;;;6.78;;
16916;SDS011;8575;52.418;13.492;2022-12-31T06:36:39;7.20;;;6.80;;
16916;SDS011;8575;52.418;13.492;2022-12-31T06:38:42;7.90;;;7.30;;
16916;SDS011;8575;52.418;13.492;2022-12-31T06:40:44;6.28;;;5.88;;
16916;SDS011;8575;52.418;13.492;2022-12-31T06:42:47;7.07;;;6.57;;
16916;SDS011;8575;52.418;13.492;2022-12-31T06:44:49;8.27;;;7.67;;
16916;SDS011;8575;52.418;13.492;2022-12-31T06:46:51;7.80;;;7.30;;
16916;SDS011;8575;52.418;13.492;2022-12-31T06:48:55;7.93;;;7.43;;
16916;SDS011;8575;52.418;13.492;2022-12-31T06:51:01;7.07;;;6.67;;
16916;SDS011;8575;52.418;13.492;2022-12-31T06:53:05;7.63;;;7.13;;
16916;SDS011;8575;52.418;13.492;2022-12-31T06:55:07;9.07;;;8.43;;
16916;SDS011;8575;52.418;13.492;2022-12-31T06:57:11;9.32;;;8.63;;
16916;SDS011;8575;52.418;13.492;2022-12-31T06:59:22;7.60;;;7.10;;
16916;SDS011;8575;52.418;13.492;2022-12-31T07:01:28;7.67;;;7.17;;
16916;SDS011;8575;52.418;13.492;2022-12-31T07:03:55;8.17;;;7.60;;
16916;SDS011;8575;52.418;13.492;2022-12-31T07:06:02;8.15;;;7.63;;
16916;SDS011;8575;52.418;13.492;2022-12-31T07:08:13;7.77;;;7.27;;
16916;SDS011;8575;52.418;13.492;2022-12-31T07:10:24;8.83;;;8.20;;
16916;SDS011;8575;52.418;13.492;2022-12-31T07:12:35;7.95;;;7.45;;
16916;SDS011;8575;52.418;13.492;2022-12-31T07:14:47;9.40;;;8.77;;
16916;SDS011;8575;52.418;13.492;2022-12-31T07:16:55;7.82;;;7.32;;
16916;SDS011;8575;52.418;13.492;2022-12-31T07:19:08;7.55;;;7.10;;
16916;SDS011;8575;52.418;13.492;2022-12-31T07:21:15;8.70;;;8.10;;
16916;SDS011;8575;52.418;13.492;2022-12-31T07:23:19;9.20;;;8.50;;
16916;SDS011;8575;52.418;13.492;2022-12-31T07:25:22;8.07;;;7.57;;
16916;SDS011;8575;52.418;13.492;2022-12-31T07:29:55;9.80;;;9.10;;
16916;SDS011;8575;52.418;13.492;2022-12-31T07:32:05;7.50;;;7.00;;
16916;SDS011;8575;52.418;13.492;2022-12-31T07:34:15;7.93;;;7.33;;
16916;SDS011;8575;52.418;13.492;2022-12-31T07:36:26;8.75;;;8.13;;
16916;SDS011;8575;52.418;13.492;2022-12-31T07:38:39;7.95;;;7.38;;
16916;SDS011;8575;52.418;13.492;2022-12-31T07:40:50;8.00;;;7.40;;
16916;SDS011;8575;52.418;13.492;2022-12-31T07:43:00;8.25;;;7.72;;
16916;SDS011;8575;52.418;13.492;2022-12-31T07:45:08;10.57;;;9.77;;
16916;SDS011;8575;52.418;13.492;2022-12-31T07:47:18;8.40;;;7.83;;
16916;SDS011;8575;52.418;13.492;2022-12-31T07:49:23;8.10;;;7.60;;
16916;SDS011;8575;52.418;13.492;2022-12-31T07:51:27;8.03;;;7.43;;
16916;SDS011;8575;52.418;13.492;2022-12-31T07:53:30;9.07;;;8.47;;
16916;SDS011;8575;52.418;13.492;2022-12-31T07:55:32;8.93;;;8.33;;
16916;SDS011;8575;52.418;13.492;2022-12-31T07:57:35;7.50;;;7.03;;
16916;SDS011;8575;52.418;13.492;2022-12-31T07:59:50;7.97;;;7.47;;
16916;SDS011;8575;52.418;13.492;2022-12-31T08:02:00;8.20;;;7.67;;
16916;SDS011;8575;52.418;13.492;2022-12-31T08:04:06;8.43;;;7.93;;
16916;SDS011;8575;52.418;13.492;2022-12-31T08:06:13;8.87;;;8.27;;
16916;SDS011;8575;52.418;13.492;2022-12-31T08:08:25;8.70;;;8.13;;
16916;SDS011;8575;52.418;13.492;2022-12-31T08:10:34;8.75;;;8.20;;
16916;SDS011;8575;52.418;13.492;2022-12-31T08:12:39;8.57;;;7.97;;
16916;SDS011;8575;52.418;13.492;2022-12-31T08:14:43;10.63;;;9.90;;
16916;SDS011;8575;52.418;13.492;2022-12-31T08:16:47;8.17;;;7.60;;
16916;SDS011;8575;52.418;13.492;2022-12-31T08:18:50;8.77;;;8.17;;
16916;SDS011;8575;52.418;13.492;2022-12-31T08:20:54;8.10;;;7.60;;
16916;SDS011;8575;52.418;13.492;2022-12-31T08:23:10;9.57;;;8.87;;
16916;SDS011;8575;52.418;13.492;2022-12-31T08:25:21;8.73;;;8.17;;
16916;SDS011;8575;52.418;13.492;2022-12-31T08:27:28;9.73;;;9.03;;
16916;SDS011;8575;52.418;13.492;2022-12-31T08:29:35;8.37;;;7.80;;
16916;SDS011;8575;52.418;13.492;2022-12-31T08:31:43;7.77;;;7.27;;
16916;SDS011;8575;52.418;13.492;2022-12-31T08:33:50;9.87;;;9.20;;
16916;SDS011;8575;52.418;13.492;2022-12-31T08:35:59;9.77;;;9.07;;
16916;SDS011;8575;52.418;13.492;2022-12-31T08:38:11;9.17;;;8.50;;
16916;SDS011;8575;52.418;13.492;2022-12-31T08:40:20;8.63;;;8.03;;
16916;SDS011;8575;52.418;13.492;2022-12-31T08:42:26;10.73;;;9.90;;
16916;SDS011;8575;52.418;13.492;2022-12-31T08:44:34;8.97;;;8.27;;
16916;SDS011;8575;52.418;13.492;2022-12-31T08:46:42;10.53;;;9.70;;
16916;SDS011;8575;52.418;13.492;2022-12-31T08:48:48;11.73;;;10.87;;
16916;SDS011;8575;52.418;13.492;2022-12-31T08:50:50;11.17;;;10.27;;
16916;SDS011;8575;52.418;13.492;2022-12-31T08:52:53;9.93;;;9.20;;
16916;SDS011;8575;52.418;13.492;2022-12-31T08:54:57;13.00;;;12.00;;
16916;SDS011;8575;52.418;13.492;2022-12-31T08:57:02;10.33;;;9.53;;
16916;SDS011;8575;52.418;13.492;2022-12-31T08:59:14;10.93;;;10.13;;
16916;SDS011;8575;52.418;13.492;2022-12-31T09:01:28;10.73;;;9.93;;
16916;SDS011;8575;52.418;13.492;2022-12-31T09:03:52;11.47;;;10.60;;
16916;SDS011;8575;52.418;13.492;2022-12-31T09:06:05;11.20;;;10.37;;
16916;SDS011;8575;52.418;13.492;2022-12-31T09:08:14;9.53;;;8.83;;
16916;SDS011;8575;52.418;13.492;2022-12-31T09:10:23;11.17;;;10.37;;
16916;SDS011;8575;52.418;13.492;2022-12-31T09:12:28;10.67;;;9.90;;
16916;SDS011;8575;52.418;13.492;2022-12-31T09:14:44;9.80;;;9.10;;
16916;SDS011;8575;52.418;13.492;2022-12-31T09:16:50;8.50;;;7.97;;
16916;SDS011;8575;52.418;13.492;2022-12-31T09:18:56;9.60;;;9.00;;
16916;SDS011;8575;52.418;13.492;2022-12-31T09:20:58;10.23;;;9.53;;
16916;SDS011;8575;52.418;13.492;2022-12-31T09:23:01;10.47;;;9.70;;
16916;SDS011;8575;52.418;13.492;2022-12-31T09:25:04;12.37;;;11.50;;
16916;SDS011;8575;52.418;13.492;2022-12-31T09:27:12;12.97;;;12.00;;
16916;SDS011;8575;52.418;13.492;2022-12-31T09:29:24;10.60;;;9.83;;
16916;SDS011;8575;52.418;13.492;2022-12-31T09:31:33;10.67;;;9.97;;
16916;SDS011;8575;52.418;13.492;2022-12-31T09:33:39;12.37;;;11.47;;
16916;SDS011;8575;52.418;13.492;2022-12-31T09:35:46;10.97;;;10.10;;
16916;SDS011;8575;52.418;13.492;2022-12-31T09:37:54;10.43;;;9.63;;
16916;SDS011;8575;52.418;13.492;2022-12-31T09:39:57;10.07;;;9.30;;
16916;SDS011;8575;52.418;13.492;2022-12-31T09:44:50;9.70;;;9.03;;
16916;SDS011;8575;52.418;13.492;2022-12-31T09:47:13;10.50;;;9.77;;
16916;SDS011;8575;52.418;13.492;2022-12-31T09:52:16;11.27;;;10.47;;
16916;SDS011;8575;52.418;13.492;2022-12-31T09:54:28;11.13;;;10.33;;
16916;SDS011;8575;52.418;13.492;2022-12-31T09:56:38;11.03;;;10.30;;
16916;SDS011;8575;52.418;13.492;2022-12-31T09:58:45;10.63;;;9.93;;
16916;SDS011;8575;52.418;13.492;2022-12-31T10:00:55;10.57;;;9.90;;
16916;SDS011;8575;52.418;13.492;2022-12-31T10:03:06;10.00;;;9.33;;
16916;SDS011;8575;52.418;13.492;2022-12-31T10:07:54;10.27;;;9.63;;
16916;SDS011;8575;52.418;13.492;2022-12-31T10:10:02;10.23;;;9.60;;
16916;SDS011;8575;52.418;13.492;2022-12-31T10:14:43;10.63;;;9.93;;
16916;SDS011;8575;52.418;13.492;2022-12-31T10:16:56;9.27;;;8.67;;
16916;SDS011;8575;52.418;13.492;2022-12-31T10:19:14;10.47;;;9.70;;
16916;SDS011;8575;52.418;13.492;2022-12-31T10:21:31;10.90;;;10.10;;
16916;SDS011;8575;52.418;13.492;2022-12-31T10:23:48;10.83;;;10.03;;
16916;SDS011;8575;52.418;13.492;2022-12-31T10:26:04;10.53;;;9.83;;
16916;SDS011;8575;52.418;13.492;2022-12-31T10:28:14;9.53;;;8.93;;
16916;SDS011;8575;52.418;13.492;2022-12-31T10:30:22;10.20;;;9.50;;
16916;SDS011;8575;52.418;13.492;2022-12-31T10:32:29;10.63;;;9.93;;
16916;SDS011;8575;52.418;13.492;2022-12-31T10:34:40;10.37;;;9.73;;
16916;SDS011;8575;52.418;13.492;2022-12-31T10:36:53;9.85;;;9.25;;
16916;SDS011;8575;52.418;13.492;2022-12-31T10:39:00;8.90;;;8.27;;
16916;SDS011;8575;52.418;13.492;2022-12-31T10:44:00;11.10;;;9.60;;
16916;SDS011;8575;52.418;13.492;2022-12-31T10:46:30;6.57;;;6.17;;
16916;SDS011;8575;52.418;13.492;2022-12-31T10:53:57;8.00;;;7.53;;
16916;SDS011;8575;52.418;13.492;2022-12-31T10:56:37;8.10;;;7.37;;
16916;SDS011;8575;52.418;13.492;2022-12-31T10:59:26;7.60;;;7.13;;
16916;SDS011;8575;52.418;13.492;2022-12-31T11:02:05;10.93;;;7.97;;
16916;SDS011;8575;52.418;13.492;2022-12-31T11:12:14;6.83;;;6.23;;
16916;SDS011;8575;52.418;13.492;2022-12-31T11:14:31;8.47;;;6.73;;
16916;SDS011;8575;52.418;13.492;2022-12-31T11:16:46;14.10;;;8.87;;
16916;SDS011;8575;52.418;13.492;2022-12-31T11:18:56;32.00;;;12.20;;
16916;SDS011;8575;52.418;13.492;2022-12-31T11:21:08;24.97;;;11.37;;
16916;SDS011;8575;52.418;13.492;2022-12-31T11:23:23;26.47;;;10.93;;
16916;SDS011;8575;52.418;13.492;2022-12-31T11:25:33;29.23;;;12.60;;
16916;SDS011;8575;52.418;13.492;2022-12-31T11:27:48;29.10;;;12.07;;
16916;SDS011;8575;52.418;13.492;2022-12-31T11:30:12;36.43;;;13.50;;
16916;SDS011;8575;52.418;13.492;2022-12-31T11:32:25;48.50;;;15.63;;
16916;SDS011;8575;52.418;13.492;2022-12-31T11:34:41;45.20;;;15.00;;
16916;SDS011;8575;52.418;13.492;2022-12-31T11:37:06;57.97;;;18.53;;
16916;SDS011;8575;52.418;13.492;2022-12-31T11:39:22;43.30;;;15.60;;
16916;SDS011;8575;52.418;13.492;2022-12-31T11:41:38;34.17;;;14.23;;
16916;SDS011;8575;52.418;13.492;2022-12-31T11:43:45;28.43;;;12.20;;
16916;SDS011;8575;52.418;13.492;2022-12-31T11:45:58;32.33;;;12.73;;
16916;SDS011;8575;52.418;13.492;2022-12-31T11:48:06;36.13;;;13.40;;
16916;SDS011;8575;52.418;13.492;2022-12-31T11:50:21;40.27;;;14.70;;
16916;SDS011;8575;52.418;13.492;2022-12-31T11:52:39;33.13;;;12.47;;
16916;SDS011;8575;52.418;13.492;2022-12-31T11:54:58;38.47;;;14.00;;
16916;SDS011;8575;52.418;13.492;2022-12-31T11:57:11;39.83;;;14.47;;
16916;SDS011;8575;52.418;13.492;2022-12-31T11:59:17;33.37;;;12.73;;
16916;SDS011;8575;52.418;13.492;2022-12-31T12:01:21;29.73;;;12.23;;
16916;SDS011;8575;52.418;13.492;2022-12-31T12:03:26;31.83;;;13.33;;
16916;SDS011;8575;52.418;13.492;2022-12-31T12:05:28;26.00;;;10.87;;
16916;SDS011;8575;52.418;13.492;2022-12-31T12:07:33;27.43;;;12.37;;
16916;SDS011;8575;52.418;13.492;2022-12-31T12:09:35;23.60;;;11.20;;
16916;SDS011;8575;52.418;13.492;2022-12-31T12:11:39;24.07;;;11.43;;
16916;SDS011;8575;52.418;13.492;2022-12-31T12:13:43;31.47;;;12.33;;
16916;SDS011;8575;52.418;13.492;2022-12-31T12:15:47;23.77;;;10.07;;
16916;SDS011;8575;52.418;13.492;2022-12-31T12:17:53;19.47;;;9.50;;
16916;SDS011;8575;52.418;13.492;2022-12-31T12:20:12;48.13;;;14.93;;
16916;SDS011;8575;52.418;13.492;2022-12-31T12:22:19;27.50;;;10.10;;
16916;SDS011;8575;52.418;13.492;2022-12-31T12:24:24;29.83;;;10.87;;
16916;SDS011;8575;52.418;13.492;2022-12-31T12:26:31;26.13;;;11.23;;
16916;SDS011;8575;52.418;13.492;2022-12-31T12:28:43;28.63;;;10.90;;
16916;SDS011;8575;52.418;13.492;2022-12-31T12:30:51;37.37;;;13.03;;
16916;SDS011;8575;52.418;13.492;2022-12-31T12:32:59;32.93;;;12.73;;
16916;SDS011;8575;52.418;13.492;2022-12-31T12:35:14;34.90;;;13.70;;
16916;SDS011;8575;52.418;13.492;2022-12-31T12:39:36;36.00;;;12.83;;
16916;SDS011;8575;52.418;13.492;2022-12-31T12:41:39;43.60;;;15.03;;
16916;SDS011;8575;52.418;13.492;2022-12-31T12:43:43;51.53;;;17.30;;
16916;SDS011;8575;52.418;13.492;2022-12-31T12:45:45;51.10;;;16.37;;
16916;SDS011;8575;52.418;13.492;2022-12-31T12:47:49;61.90;;;18.63;;
16916;SDS011;8575;52.418;13.492;2022-12-31T12:49:55;61.97;;;18.73;;
16916;SDS011;8575;52.418;13.492;2022-12-31T12:52:08;50.80;;;15.90;;
16916;SDS011;8575;52.418;13.492;2022-12-31T12:54:33;67.17;;;20.33;;
16916;SDS011;8575;52.418;13.492;2022-12-31T12:56:45;46.07;;;15.50;;
16916;SDS011;8575;52.418;13.492;2022-12-31T12:58:55;59.33;;;18.83;;
16916;SDS011;8575;52.418;13.492;2022-12-31T13:01:07;67.63;;;19.77;;
16916;SDS011;8575;52.418;13.492;2022-12-31T13:03:19;70.70;;;20.40;;
16916;SDS011;8575;52.418;13.492;2022-12-31T13:05:47;85.17;;;24.00;;
16916;SDS011;8575;52.418;13.492;2022-12-31T13:08:04;84.57;;;24.53;;
16916;SDS011;8575;52.418;13.492;2022-12-31T13:10:14;92.17;;;26.43;;
16916;SDS011;8575;52.418;13.492;2022-12-31T13:12:23;99.97;;;28.13;;
16916;SDS011;8575;52.418;13.492;2022-12-31T13:14:31;129.20;;;33.60;;
16916;SDS011;8575;52.418;13.492;2022-12-31T13:16:40;123.17;;;33.80;;
16916;SDS011;8575;52.418;13.492;2022-12-31T13:18:48;119.87;;;31.80;;
16916;SDS011;8575;52.418;13.492;2022-12-31T13:20:54;113.97;;;30.40;;
16916;SDS011;8575;52.418;13.492;2022-12-31T13:23:01;103.70;;;27.93;;
16916;SDS011;8575;52.418;13.492;2022-12-31T13:25:14;92.53;;;26.70;;
16916;SDS011;8575;52.418;13.492;2022-12-31T13:27:25;76.13;;;22.00;;
16916;SDS011;8575;52.418;13.492;2022-12-31T13:29:31;102.97;;;27.53;;
16916;SDS011;8575;52.418;13.492;2022-12-31T13:31:35;94.20;;;25.60;;